createdAt,value
2022-08-12T00:02:46.471Z,100693.84
2022-08-12T00:05:34.014Z,100687.75
2022-08-12T00:08:28.949Z,100691.66
2022-08-12T00:11:21.668Z,100694.69
2022-08-12T00:14:07.153Z,100692.63
2022-08-12T00:16:53.392Z,100687.94
2022-08-12T00:19:40.518Z,100690.16
2022-08-12T00:22:26.470Z,100684.22
2022-08-12T00:25:16.898Z,100688.66
2022-08-12T00:28:04.078Z,100679.41
2022-08-12T00:30:50.094Z,100690.34
2022-08-12T00:33:38.671Z,100697.41
2022-08-12T00:36:44.979Z,100702.00
2022-08-12T00:39:31.489Z,100698.81
2022-08-12T00:42:11.441Z,100702.03
2022-08-12T00:44:42.341Z,100704.66
2022-08-12T00:47:24.167Z,100702.16
2022-08-12T00:49:54.440Z,100711.16
2022-08-12T00:52:24.962Z,100708.53
2022-08-12T00:54:57.106Z,100708.69
2022-08-12T00:57:28.942Z,100709.75
2022-08-12T00:59:59.209Z,100706.16
2022-08-12T01:02:29.165Z,100706.72
2022-08-12T01:05:17.080Z,100708.66
2022-08-12T01:08:06.002Z,100703.69
2022-08-12T01:10:53.925Z,100705.34
2022-08-12T01:13:23.344Z,100703.41
2022-08-12T01:15:53.346Z,100705.34
2022-08-12T01:18:23.459Z,100701.19
2022-08-12T01:21:02.270Z,100700.38
2022-08-12T01:23:48.731Z,100699.69
2022-08-12T01:26:21.073Z,100699.69
2022-08-12T01:28:51.301Z,100702.47
2022-08-12T01:31:21.664Z,100698.44
2022-08-12T01:34:03.707Z,100703.44
2022-08-12T01:36:41.279Z,100700.66
2022-08-12T01:39:10.222Z,100697.09
2022-08-12T01:41:45.236Z,100699.16
2022-08-12T01:44:21.248Z,100700.94
2022-08-12T01:47:05.814Z,100699.03
2022-08-12T01:49:55.046Z,100700.00
2022-08-12T01:52:31.941Z,100695.25
2022-08-12T01:55:01.107Z,100692.63
2022-08-12T01:57:59.656Z,100686.41
2022-08-12T02:00:45.980Z,100690.97
2022-08-12T02:04:02.880Z,100689.03
2022-08-12T02:06:55.527Z,100684.75
2022-08-12T02:09:52.715Z,100689.03
2022-08-12T02:12:35.011Z,100685.72
2022-08-12T02:15:13.530Z,100684.06
2022-08-12T02:17:57.107Z,100687.66
2022-08-12T02:20:43.875Z,100686.28
2022-08-12T02:23:21.673Z,100689.88
2022-08-12T02:25:55.635Z,100689.19
2022-08-12T02:28:24.526Z,100696.53
2022-08-12T02:30:55.131Z,100695.84
2022-08-12T02:33:24.376Z,100686.28
2022-08-12T02:35:52.778Z,100683.09
2022-08-12T02:38:22.922Z,100680.75
2022-08-12T02:40:54.943Z,100679.50
2022-08-12T02:43:32.006Z,100685.84
2022-08-12T02:46:07.360Z,100679.22
2022-08-12T02:48:45.808Z,100686.28
2022-08-12T02:51:20.558Z,100685.44
2022-08-12T02:54:04.662Z,100676.28
2022-08-12T02:56:37.943Z,100681.84
2022-08-12T02:59:12.368Z,100675.19
2022-08-12T03:01:49.858Z,100686.81
2022-08-12T03:04:27.408Z,100679.91
2022-08-12T03:07:03.174Z,100680.06
2022-08-12T03:09:43.107Z,100682.00
2022-08-12T03:12:25.042Z,100683.78
2022-08-12T03:14:56.062Z,100688.47
2022-08-12T03:17:31.550Z,100677.81
2022-08-12T03:20:10.433Z,100673.81
2022-08-12T03:22:41.664Z,100675.19
2022-08-12T03:25:17.356Z,100679.34
2022-08-12T03:27:51.853Z,100677.44
2022-08-12T03:30:21.183Z,100682.38
2022-08-12T03:32:52.504Z,100686.69
2022-08-12T03:35:40.319Z,100682.94
2022-08-12T03:38:12.443Z,100682.38
2022-08-12T03:41:18.330Z,100684.06
2022-08-12T03:44:16.946Z,100690.72
2022-08-12T03:47:07.417Z,100685.19
2022-08-12T03:49:54.974Z,100687.66
2022-08-12T03:52:40.651Z,100690.00
2022-08-12T03:55:26.785Z,100683.91
2022-08-12T03:58:12.263Z,100688.34
2022-08-12T04:00:40.406Z,100683.09
2022-08-12T04:03:29.092Z,100688.47
2022-08-12T04:05:58.748Z,100683.75
2022-08-12T04:08:27.721Z,100677.94
2022-08-12T04:11:13.422Z,100681.78
2022-08-12T04:13:41.933Z,100679.31
2022-08-12T04:16:13.713Z,100684.97
2022-08-12T04:18:42.528Z,100682.84
2022-08-12T04:21:12.407Z,100683.06
2022-08-12T04:23:47.782Z,100675.38
2022-08-12T04:26:16.406Z,100672.91
2022-08-12T04:28:46.043Z,100668.53
2022-08-12T04:31:14.316Z,100655.25
2022-08-12T04:33:43.938Z,100667.50
2022-08-12T04:36:13.686Z,100670.50
2022-08-12T04:38:43.319Z,100669.09
2022-08-12T04:41:12.018Z,100669.41
2022-08-12T04:43:55.373Z,100668.00
2022-08-12T04:46:33.689Z,100670.09
2022-08-12T04:49:03.757Z,100661.94
2022-08-12T04:51:34.319Z,100669.94
2022-08-12T04:54:02.817Z,100667.66
2022-08-12T04:56:35.516Z,100663.88
2022-08-12T04:59:04.430Z,100669.19
2022-08-12T05:01:32.971Z,100669.66
2022-08-12T05:04:02.957Z,100672.28
2022-08-12T05:06:32.858Z,100668.97
2022-08-12T05:09:01.409Z,100674.69
2022-08-12T05:11:29.554Z,100679.94
2022-08-12T05:14:00.276Z,100673.84
2022-08-12T05:16:31.170Z,100677.31
2022-08-12T05:19:02.517Z,100682.88
2022-08-12T05:21:30.889Z,100680.88
2022-08-12T05:24:00.390Z,100695.19
2022-08-12T05:26:29.498Z,100693.41
2022-08-12T05:28:57.530Z,100699.75
2022-08-12T05:31:42.614Z,100687.88
2022-08-12T05:34:15.646Z,100690.19
2022-08-12T05:36:44.895Z,100691.03
2022-08-12T05:39:14.445Z,100694.59
2022-08-12T05:41:42.531Z,100697.47
2022-08-12T05:44:12.820Z,100688.31
2022-08-12T05:46:41.296Z,100690.03
2022-08-12T05:49:09.796Z,100692.44
2022-08-12T05:51:41.715Z,100702.34
2022-08-12T05:54:11.603Z,100707.66
2022-08-12T05:56:42.075Z,100708.19
2022-08-12T05:59:12.156Z,100702.00
2022-08-12T06:02:09.110Z,100705.91
2022-08-12T06:04:28.620Z,100709.91
2022-08-12T06:06:56.674Z,100694.72
2022-08-12T06:09:26.542Z,100695.38
2022-08-12T06:12:05.641Z,100698.75
2022-08-12T06:14:37.065Z,100692.28
2022-08-12T06:17:07.985Z,100698.88
2022-08-12T06:20:27.355Z,100693.19
2022-08-12T06:22:24.074Z,100689.22
2022-08-12T06:24:53.504Z,100687.16
2022-08-12T06:27:23.090Z,100683.66
2022-08-12T06:30:09.040Z,100674.63
2022-08-12T06:33:10.696Z,100691.31
2022-08-12T06:35:48.375Z,100689.56
2022-08-12T06:38:17.536Z,100689.19
2022-08-12T06:41:03.908Z,100682.59
2022-08-12T06:44:05.639Z,100689.31
2022-08-12T06:46:23.210Z,100697.56
2022-08-12T06:48:55.767Z,100704.16
2022-08-12T06:51:23.852Z,100698.59
2022-08-12T06:53:51.886Z,100698.34
2022-08-12T06:56:20.638Z,100691.63
2022-08-12T06:58:50.059Z,100685.88
2022-08-12T07:01:18.725Z,100689.03
2022-08-12T07:03:47.153Z,100687.34
2022-08-12T07:06:16.069Z,100682.03
2022-08-12T07:08:44.819Z,100688.63
2022-08-12T07:11:15.680Z,100684.50
2022-08-12T07:14:12.650Z,100692.56
2022-08-12T07:16:48.957Z,100692.00
2022-08-12T07:19:17.203Z,100688.66
2022-08-12T07:21:59.558Z,100700.06
2022-08-12T07:24:29.941Z,100689.19
2022-08-12T07:26:58.037Z,100694.16
2022-08-12T07:30:03.936Z,100679.09
2022-08-12T07:32:18.411Z,100683.84
2022-08-12T07:34:47.451Z,100678.75
2022-08-12T07:37:15.993Z,100683.44
2022-08-12T07:39:50.866Z,100679.75
2022-08-12T07:42:27.345Z,100679.34
2022-08-12T07:44:56.042Z,100674.97
2022-08-12T07:47:27.587Z,100668.19
2022-08-12T07:50:04.670Z,100673.22
2022-08-12T07:52:34.898Z,100674.78
2022-08-12T07:55:03.787Z,100662.63
2022-08-12T07:57:33.615Z,100665.25
2022-08-12T08:00:05.267Z,100667.88
2022-08-12T08:02:37.155Z,100665.19
2022-08-12T08:05:06.843Z,100671.81
2022-08-12T08:07:35.277Z,100665.81
2022-08-12T08:10:09.195Z,100672.97
2022-08-12T08:12:56.074Z,100667.31
2022-08-12T08:15:44.434Z,100668.66
2022-08-12T08:18:26.631Z,100668.59
2022-08-12T08:20:57.639Z,100670.31
2022-08-12T08:23:56.320Z,100661.81
2022-08-12T08:26:27.274Z,100661.50
2022-08-12T08:28:55.456Z,100653.81
2022-08-12T08:31:23.496Z,100648.25
2022-08-12T08:34:05.302Z,100654.34
2022-08-12T08:36:43.732Z,100659.66
2022-08-12T08:39:14.913Z,100665.72
2022-08-12T08:42:16.727Z,100657.88
2022-08-12T08:44:50.360Z,100649.16
2022-08-12T08:47:27.011Z,100648.47
2022-08-12T08:50:01.329Z,100650.06
2022-08-12T08:52:40.124Z,100628.47
2022-08-12T08:55:10.514Z,100639.88
2022-08-12T08:57:42.906Z,100636.41
2022-08-12T09:00:15.568Z,100637.75
2022-08-12T09:02:49.560Z,100637.38
2022-08-12T09:05:28.115Z,100640.09
2022-08-12T09:08:14.327Z,100629.59
2022-08-12T09:10:45.194Z,100631.19
2022-08-12T09:13:28.998Z,100626.69
2022-08-12T09:16:19.960Z,100632.16
2022-08-12T09:18:52.147Z,100618.13
2022-08-12T09:21:23.116Z,100631.69
2022-08-12T09:26:46.495Z,100615.41
2022-08-12T09:29:15.505Z,100617.28
2022-08-12T09:32:06.379Z,100615.06
2022-08-12T09:34:36.432Z,100602.06
2022-08-12T09:37:20.159Z,100606.44
2022-08-12T09:40:05.624Z,100615.06
2022-08-12T09:43:15.151Z,100614.94
2022-08-12T09:46:06.630Z,100608.00
2022-08-12T09:48:39.863Z,100589.78
2022-08-12T09:51:16.990Z,100596.81
2022-08-12T09:54:09.209Z,100599.41
2022-08-12T09:57:02.133Z,100579.34
2022-08-12T10:00:17.239Z,100584.97
2022-08-12T10:02:44.300Z,100578.44
2022-08-12T10:05:06.154Z,100582.50
2022-08-12T10:07:41.084Z,100582.03
2022-08-12T10:10:24.236Z,100568.81
2022-08-12T10:13:33.840Z,100568.78
2022-08-12T10:16:05.318Z,100564.97
2022-08-12T10:18:35.471Z,100552.56
2022-08-12T10:21:07.985Z,100553.94
2022-08-12T10:23:39.889Z,100559.19
2022-08-12T10:26:37.663Z,100550.00
2022-08-12T10:30:02.816Z,100543.22
2022-08-12T10:32:44.851Z,100552.69
2022-08-12T10:35:10.142Z,100544.91
2022-08-12T10:38:35.854Z,100551.16
2022-08-12T10:40:32.147Z,100541.41
2022-08-12T10:43:19.804Z,100538.56
2022-08-12T10:45:49.577Z,100534.50
2022-08-12T10:48:33.421Z,100537.19
2022-08-12T10:52:03.058Z,100540.81
2022-08-12T10:53:54.344Z,100541.88
2022-08-12T10:56:34.679Z,100531.19
2022-08-12T10:59:10.603Z,100536.66
2022-08-12T11:04:17.430Z,100527.84
2022-08-12T11:04:49.208Z,100526.06
2022-08-12T11:08:33.638Z,100521.50
2022-08-12T11:10:07.144Z,100528.47
2022-08-12T11:12:59.837Z,100525.59
2022-08-12T11:16:02.988Z,100521.81
2022-08-12T11:18:17.896Z,100516.91
2022-08-12T11:20:48.986Z,100518.16
2022-08-12T11:23:25.915Z,100517.19
2022-08-12T11:26:07.988Z,100520.44
2022-08-12T11:28:38.195Z,100513.41
2022-08-12T11:31:12.394Z,100513.50
2022-08-12T11:34:06.516Z,100503.13
2022-08-12T11:36:31.087Z,100490.84
2022-08-12T11:39:04.255Z,100508.81
2022-08-12T11:41:34.802Z,100496.13
2022-08-12T11:44:35.187Z,100490.78
2022-08-12T11:46:54.715Z,100486.03
2022-08-12T11:49:32.247Z,100489.25
2022-08-12T11:52:02.251Z,100473.16
2022-08-12T11:54:31.109Z,100485.53
2022-08-12T11:57:00.585Z,100481.91
2022-08-12T12:02:21.603Z,100475.03
2022-08-12T12:04:52.771Z,100455.72
2022-08-12T12:07:22.717Z,100462.78
2022-08-12T12:10:02.142Z,100472.56
2022-08-12T12:12:30.157Z,100466.75
2022-08-12T12:15:03.184Z,100464.50
2022-08-12T12:17:38.704Z,100466.34
2022-08-12T12:20:09.693Z,100466.88
2022-08-12T12:22:38.211Z,100458.06
2022-08-12T12:25:12.681Z,100465.81
2022-08-12T12:28:05.848Z,100445.44
2022-08-12T12:30:34.727Z,100449.59
2022-08-12T12:33:04.860Z,100446.91
2022-08-12T12:36:18.460Z,100451.66
2022-08-12T12:38:25.295Z,100448.16
2022-08-12T12:40:54.179Z,100447.22
2022-08-12T12:43:28.853Z,100437.44
2022-08-12T12:46:11.009Z,100437.91
2022-08-12T12:48:44.318Z,100431.75
2022-08-12T12:51:48.907Z,100428.19
2022-08-12T12:54:10.009Z,100433.69
2022-08-12T12:56:42.523Z,100434.47
2022-08-12T12:59:54.996Z,100430.63
2022-08-12T13:02:07.561Z,100425.75
2022-08-12T13:04:38.206Z,100421.50
2022-08-12T13:07:06.967Z,100412.13
2022-08-12T13:09:36.367Z,100422.13
2022-08-12T13:12:08.231Z,100414.59
2022-08-12T13:14:39.997Z,100409.72
2022-08-12T13:17:09.763Z,100408.31
2022-08-12T13:19:45.215Z,100409.28
2022-08-12T13:22:20.322Z,100404.38
2022-08-12T13:24:51.870Z,100401.94
2022-08-12T13:27:23.244Z,100406.66
2022-08-12T13:29:59.869Z,100397.50
2022-08-12T13:32:31.816Z,100394.81
2022-08-12T13:35:04.407Z,100390.78
2022-08-12T13:37:54.866Z,100393.00
2022-08-12T13:40:24.653Z,100394.06
2022-08-12T13:42:57.537Z,100392.00
2022-08-12T13:45:26.593Z,100386.16
2022-08-12T13:47:59.914Z,100383.03
2022-08-12T13:50:32.553Z,100384.44
2022-08-12T13:53:06.264Z,100387.47
2022-08-12T13:55:59.351Z,100374.88
2022-08-12T13:58:30.301Z,100376.44
2022-08-12T14:00:59.628Z,100372.44
2022-08-12T14:03:28.606Z,100384.75
2022-08-12T14:06:17.982Z,100381.06
2022-08-12T14:08:49.719Z,100375.88
2022-08-12T14:11:19.455Z,100372.34
2022-08-12T14:14:04.633Z,100375.13
2022-08-12T14:16:48.437Z,100386.56
2022-08-12T14:19:22.841Z,100380.50
2022-08-12T14:22:00.625Z,100379.31
2022-08-12T14:24:35.776Z,100373.97
2022-08-12T14:27:08.822Z,100366.97
2022-08-12T14:30:04.539Z,100370.50
2022-08-12T14:32:35.682Z,100361.97
2022-08-12T14:35:08.977Z,100362.09
2022-08-12T14:37:55.280Z,100363.72
2022-08-12T14:40:27.785Z,100365.22
2022-08-12T14:42:57.251Z,100333.72
2022-08-12T14:45:44.411Z,100356.59
2022-08-12T14:48:15.064Z,100349.31
2022-08-12T14:52:15.992Z,100356.22
2022-08-12T14:59:56.517Z,100351.78
2022-08-12T15:02:20.854Z,100354.09
2022-08-12T15:04:56.238Z,100359.13
2022-08-12T15:07:32.876Z,100356.41
2022-08-12T15:10:14.787Z,100356.56
2022-08-12T15:12:53.598Z,100350.56
2022-08-12T15:15:22.615Z,100352.19
2022-08-12T15:17:59.407Z,100349.19
2022-08-12T15:20:37.185Z,100337.44
2022-08-12T15:23:17.376Z,100340.31
2022-08-12T15:25:48.571Z,100336.31
2022-08-12T15:28:21.405Z,100336.94
2022-08-12T15:30:53.101Z,100327.28
2022-08-12T15:33:24.257Z,100324.31
2022-08-12T15:35:54.171Z,100326.66
2022-08-12T15:38:25.253Z,100325.97
2022-08-12T15:40:59.081Z,100322.72
2022-08-12T15:43:52.105Z,100317.13
2022-08-12T15:46:25.523Z,100313.75
2022-08-12T15:48:53.770Z,100303.31
2022-08-12T15:51:59.841Z,100308.31
2022-08-12T15:54:34.399Z,100312.75
2022-08-12T15:57:07.600Z,100310.84
2022-08-12T15:59:51.959Z,100304.50
2022-08-12T16:02:26.943Z,100308.03
2022-08-12T16:04:57.317Z,100309.97
2022-08-12T16:07:29.855Z,100317.41
2022-08-12T16:10:06.825Z,100302.88
2022-08-12T16:12:54.298Z,100306.34
2022-08-12T16:15:24.951Z,100305.94
2022-08-12T16:18:19.252Z,100299.53
2022-08-12T16:20:46.895Z,100301.38
2022-08-12T16:23:36.239Z,100301.66
2022-08-12T16:26:14.360Z,100297.78
2022-08-12T16:28:47.633Z,100301.88
2022-08-12T16:31:23.663Z,100302.69
2022-08-12T16:33:59.048Z,100296.03
2022-08-12T16:36:30.341Z,100291.66
2022-08-12T16:39:01.102Z,100297.19
2022-08-12T16:41:39.598Z,100299.66
2022-08-12T16:44:09.637Z,100299.41
2022-08-12T16:46:39.012Z,100303.88
2022-08-12T16:49:13.271Z,100294.34
2022-08-12T16:51:47.023Z,100302.16
2022-08-12T16:54:17.239Z,100308.34
2022-08-12T16:56:54.669Z,100296.97
2022-08-12T16:59:30.887Z,100303.19
2022-08-12T17:02:31.171Z,100301.31
2022-08-12T17:05:03.649Z,100302.66
2022-08-12T17:07:38.268Z,100304.88
2022-08-12T17:10:13.219Z,100303.69
2022-08-12T17:12:42.392Z,100305.78
2022-08-12T17:15:50.219Z,100313.88
2022-08-12T17:18:15.496Z,100308.47
2022-08-12T17:20:50.864Z,100306.25
2022-08-12T17:23:20.647Z,100310.91
2022-08-12T17:25:50.413Z,100313.75
2022-08-12T17:28:19.806Z,100301.66
2022-08-12T17:30:57.275Z,100328.25
2022-08-12T17:33:33.614Z,100317.63
2022-08-12T17:36:05.926Z,100334.88
2022-08-12T17:38:35.136Z,100329.56
2022-08-12T17:41:08.289Z,100332.88
2022-08-12T17:43:58.246Z,100337.00
2022-08-12T17:46:33.598Z,100341.19
2022-08-12T17:49:06.798Z,100336.06
2022-08-12T17:52:02.296Z,100336.13
2022-08-12T17:54:31.083Z,100332.69
2022-08-12T17:57:01.357Z,100338.00
2022-08-12T17:59:47.940Z,100341.31
2022-08-12T18:02:29.959Z,100346.25
2022-08-12T18:05:09.756Z,100351.81
2022-08-12T18:07:39.284Z,100353.88
2022-08-12T18:10:08.480Z,100358.81
2022-08-12T18:12:42.720Z,100349.16
2022-08-12T18:15:26.131Z,100353.69
2022-08-12T18:17:59.328Z,100348.94
2022-08-12T18:20:28.784Z,100360.22
2022-08-12T18:22:59.576Z,100357.13
2022-08-12T18:26:12.659Z,100363.47
2022-08-12T18:28:40.577Z,100367.19
2022-08-12T18:31:08.853Z,100365.72
2022-08-12T18:33:44.005Z,100371.66
2022-08-12T18:36:22.619Z,100371.44
2022-08-12T18:38:56.247Z,100379.31
2022-08-12T18:41:34.342Z,100378.09
2022-08-12T18:44:05.305Z,100371.13
2022-08-12T18:46:53.925Z,100386.00
2022-08-12T18:49:39.332Z,100376.31
2022-08-12T18:52:11.677Z,100381.41
2022-08-12T18:54:49.773Z,100390.00
2022-08-12T18:58:06.943Z,100392.16
2022-08-12T19:00:21.006Z,100385.50
2022-08-12T19:02:52.011Z,100393.88
2022-08-12T19:05:53.271Z,100394.03
2022-08-12T19:08:13.526Z,100394.53
2022-08-12T19:10:50.734Z,100396.94
2022-08-12T19:13:37.699Z,100402.31
2022-08-12T19:16:10.828Z,100401.91
2022-08-12T19:18:41.043Z,100398.22
2022-08-12T19:21:15.911Z,100402.38
2022-08-12T19:24:05.268Z,100401.00
2022-08-12T19:26:33.472Z,100400.00
2022-08-12T19:29:05.217Z,100409.25
2022-08-12T19:31:58.112Z,100404.19
2022-08-12T19:37:26.690Z,100418.19
2022-08-12T19:40:10.060Z,100412.34
2022-08-12T19:43:01.033Z,100410.31
2022-08-12T19:45:42.013Z,100414.84
2022-08-12T19:48:16.805Z,100407.97
2022-08-12T19:50:50.325Z,100404.25
2022-08-12T19:53:22.918Z,100413.13
2022-08-12T19:55:53.263Z,100399.94
2022-08-12T19:58:22.972Z,100405.91
2022-08-12T20:00:54.667Z,100408.81
2022-08-12T20:03:40.217Z,100407.38
2022-08-12T20:06:13.949Z,100404.41
2022-08-12T20:08:48.652Z,100400.59
2022-08-12T20:12:14.314Z,100401.59
2022-08-12T20:14:12.244Z,100411.81
2022-08-12T20:16:52.135Z,100407.56
2022-08-12T20:19:52.771Z,100407.56
2022-08-12T20:22:23.498Z,100400.47
2022-08-12T20:24:56.790Z,100409.72
2022-08-12T20:27:28.587Z,100404.03
2022-08-12T20:29:59.605Z,100392.13
2022-08-12T20:32:29.630Z,100396.56
2022-08-12T20:35:10.017Z,100407.06
2022-08-12T20:38:07.351Z,100395.56
2022-08-12T20:40:28.991Z,100404.19
2022-08-12T20:42:57.329Z,100407.41
2022-08-12T20:45:25.864Z,100400.19
2022-08-12T20:47:55.755Z,100401.16
2022-08-12T20:50:32.201Z,100395.91
2022-08-12T20:53:02.134Z,100399.38
2022-08-12T20:55:43.027Z,100391.09
2022-08-12T20:58:12.507Z,100392.28
2022-08-12T21:00:40.657Z,100395.41
2022-08-12T21:03:25.957Z,100394.06
2022-08-12T21:06:14.134Z,100400.56
2022-08-12T21:08:42.837Z,100404.88
2022-08-12T21:11:12.300Z,100400.25
2022-08-12T21:13:41.802Z,100403.84
2022-08-12T21:16:10.632Z,100395.09
2022-08-12T21:18:39.568Z,100403.81
2022-08-12T21:21:23.646Z,100376.72
2022-08-12T21:23:53.951Z,100396.41
2022-08-12T21:26:26.480Z,100409.81
2022-08-12T21:29:01.278Z,100402.63
2022-08-12T21:32:36.527Z,100411.50
2022-08-12T21:34:22.920Z,100405.91
2022-08-12T21:36:54.466Z,100406.09
2022-08-12T21:39:35.875Z,100398.88
2022-08-12T21:42:08.657Z,100407.47
2022-08-12T21:45:46.818Z,100412.34
2022-08-12T21:47:28.671Z,100400.84
2022-08-12T21:50:02.975Z,100404.22
2022-08-12T21:52:36.085Z,100399.19
2022-08-12T21:55:08.048Z,100403.38
2022-08-12T21:57:51.053Z,100402.19
2022-08-12T22:00:24.013Z,100392.22
2022-08-12T22:03:25.174Z,100404.13
2022-08-12T22:06:26.143Z,100394.06
2022-08-12T22:09:02.033Z,100403.50
2022-08-12T22:11:42.139Z,100393.34
2022-08-12T22:14:17.910Z,100399.09
2022-08-12T22:16:51.358Z,100396.34
2022-08-12T22:19:21.025Z,100403.31
2022-08-12T22:21:53.226Z,100398.47
2022-08-12T22:24:27.214Z,100401.56
2022-08-12T22:26:58.165Z,100395.53
2022-08-12T22:29:45.278Z,100398.81
2022-08-12T22:32:15.628Z,100392.31
2022-08-12T22:34:44.621Z,100389.81
2022-08-12T22:37:19.889Z,100387.75
2022-08-12T22:39:49.408Z,100389.47
2022-08-12T22:42:35.905Z,100383.00
2022-08-12T22:45:23.624Z,100379.34
2022-08-12T22:47:56.123Z,100382.16
2022-08-12T22:50:28.268Z,100382.56
2022-08-12T22:53:15.721Z,100376.91
2022-08-12T22:56:05.729Z,100380.31
2022-08-12T22:58:40.463Z,100373.78
2022-08-12T23:01:21.281Z,100372.22
2022-08-12T23:04:00.608Z,100380.84
2022-08-12T23:06:31.050Z,100376.44
2022-08-12T23:08:59.539Z,100377.38
2022-08-12T23:11:33.724Z,100379.38
2022-08-12T23:14:07.703Z,100372.97
2022-08-12T23:16:38.764Z,100377.44
2022-08-12T23:19:18.089Z,100376.81
2022-08-12T23:22:06.192Z,100376.81
2022-08-12T23:24:55.599Z,100372.41
2022-08-12T23:27:44.245Z,100365.97
2022-08-12T23:30:24.774Z,100367.97
2022-08-12T23:33:00.046Z,100362.06
2022-08-12T23:35:53.489Z,100359.03
2022-08-12T23:38:30.179Z,100362.69
2022-08-12T23:40:59.781Z,100363.13
2022-08-12T23:43:39.656Z,100359.47
2022-08-12T23:46:09.866Z,100363.09
2022-08-12T23:48:40.866Z,100365.50
2022-08-12T23:51:22.663Z,100362.50
2022-08-12T23:53:59.675Z,100363.66
2022-08-12T23:56:29.333Z,100363.66
2022-08-12T23:58:58.456Z,100357.09
